Terminal Aerodrome Forecast
Issued by NWS Central Illinois

Home | Current Version | Previous Version | Text Only | Print | Product List | Glossary On
Versions: 1 2 3 4 5 6 7 8 9 10 11 12 13 14 15 16 17
000
FTUS43 KILX 121739
TAFPIA
TAF
KPIA 121739Z 1218/1318 32012G20KT P6SM FEW200
     FM122300 29008KT P6SM SCT250
     FM130200 VRB04KT P6SM SCT150
     FM131000 19011KT P6SM SCT120 WS015/23045KT
     FM131600 22015G25KT P6SM BKN200=

USA.gov is the U.S. government's official web portal to all federal, state and local government web resources and services.